Weather at RAF Weston-on-the-Green

Public forecast

Using degrees Celsius for public forecast. Weather courtesy of forecast.io.

Closest aviation weather report (METAR) to RAF Weston-on-the-Green

Report is more than 2 hours old.

Closest report is Oxford (Kidlington) Airport, 4.5 nm (8.4 km) WSW. Retrieved 2021/10/22 21:20 UTC (5 hours ago):

EGTK 222120Z 24004KT CAVOK 09/08 Q1024

Closest aviation forecast (TAF) to RAF Weston-on-the-Green

Closest forecast is RAF Brize Norton, 15.6 nm (28.9 km) WSW. Retrieved 2021-10-23 03:42 UTC (0 seconds ago):

TAF TAF EGVN 230133Z 2303/2403 VRB05KT 9999 BKN045 PROB30 2303/2308 4000 BR MIFG PROB30 TEMPO 2311/2316 SCT024